28 de maio de 2022

Hora Código Clima Temp. Visibilidade Tecto Vento METAR/SPECI
5:25 da manhã
V
50 °F 6¼ mi+ - 320° 320° 10 kt METAR EHAM 280325Z 32010KT 9999 FEW024 10/07 Q1021 NOSIG
4:55 da manhã
V
52 °F 6¼ mi+ - 310° 310° 11 kt METAR EHAM 280255Z 31011KT 9999 FEW024 11/07 Q1021 NOSIG
4:25 da manhã
V
52 °F 6¼ mi+ - 310° 310° 10 kt METAR EHAM 280225Z 31010KT 9999 FEW024 11/08 Q1021 NOSIG
3:55 da manhã
V
52 °F 6¼ mi+ - 300° 300° 9 kt METAR EHAM 280155Z 30009KT 9999 FEW025 11/09 Q1021 NOSIG
3:25 da manhã
V
52 °F 6¼ mi+ - 290° 290° 7 kt METAR EHAM 280125Z 29007KT CAVOK 11/08 Q1021 NOSIG
2:55 da manhã
V
52 °F 6¼ mi+ - 300° 300° 8 kt METAR EHAM 280055Z 30008KT 9999 FEW045 11/09 Q1021 NOSIG
2:25 da manhã
V
54 °F 6¼ mi+ - 300° 300° 8 kt METAR EHAM 280025Z 30008KT 9999 FEW020 12/09 Q1021 NOSIG
1:55 da manhã
V
54 °F 6¼ mi+ - 300° 300° 8 kt METAR EHAM 272355Z 30008KT 9999 FEW040 12/09 Q1021 NOSIG
1:25 da manhã
V
55 °F 6¼ mi+ - 290° 290° 10 kt METAR EHAM 272325Z 29010KT 260V320 9999 FEW040 13/09 Q1021 NOSIG
12:55 da manhã
V
54 °F 6¼ mi+ - 290° 290° 7 kt METAR EHAM 272255Z 29007KT 9999 FEW030TCU 12/09 Q1022 NOSIG
12:25 da manhã
V
54 °F 6¼ mi+ - 300° 300° 8 kt METAR EHAM 272225Z 30008KT 9999 FEW030TCU 12/09 Q1022 NOSIG

27 de maio de 2022

Hora Código Clima Temp. Visibilidade Tecto Vento METAR/SPECI
11:55 da tarde
V
55 °F 6¼ mi+ - 310° 310° 6 kt METAR EHAM 272155Z 31006KT 9999 -SHRA FEW035TCU SCT045 13/08 Q1022 TEMPO 7000
11:25 da tarde
V
55 °F 6¼ mi+ - 270° 270° 10 kt METAR EHAM 272125Z 27010KT 9999 -SHRA FEW035TCU SCT045 13/08 Q1022 NOSIG
10:55 da tarde
V
55 °F 6¼ mi+ - 260° 260° 12 kt METAR EHAM 272055Z 26012KT 9999 SCT045 13/08 Q1022 NOSIG
10:25 da tarde
V
55 °F 6¼ mi+ - 260° 260° 11 kt METAR EHAM 272025Z 26011KT 9999 FEW045 13/08 Q1022 NOSIG
9:55 da tarde
V
55 °F 6¼ mi+ - 260° 260° 12 kt METAR EHAM 271955Z 26012KT 9999 FEW040 13/07 Q1022 NOSIG
9:25 da tarde
V
55 °F 6¼ mi+ - 270° 270° 12 kt METAR EHAM 271925Z 27012KT 9999 FEW036 13/07 Q1022 NOSIG
8:55 da tarde
V
55 °F 6¼ mi+ - 270° 270° 15 kt METAR EHAM 271855Z 27015KT 9999 FEW040 13/07 Q1022 NOSIG
8:25 da tarde
V
57 °F 6¼ mi+ - 280° 280° 13 kt METAR EHAM 271825Z 28013KT 250V310 9999 FEW031 14/07 Q1022 NOSIG
7:55 da tarde
V
59 °F 6¼ mi+ - 300° 300° 15 kt METAR EHAM 271755Z 30015KT 260V330 9999 FEW038 15/06 Q1022 NOSIG
7:25 da tarde
V
59 °F 6¼ mi+ - 300° 300° 15 kt METAR EHAM 271725Z 30015KT 270V330 9999 FEW037 15/06 Q1022 NOSIG
6:55 da tarde
V
59 °F 6¼ mi+ - 300° 300° 17 kt METAR EHAM 271655Z 30017KT 270V340 9999 FEW035 15/06 Q1022 NOSIG
6:25 da tarde
V
59 °F 6¼ mi+ - 300° 300° 15 kt METAR EHAM 271625Z 30015KT 260V340 9999 FEW032 15/07 Q1022 NOSIG
5:55 da tarde
V
59 °F 6¼ mi+ - 300° 300° 18 kt METAR EHAM 271555Z 30018KT 270V350 9999 FEW032 15/07 Q1022 NOSIG
5:25 da tarde
V
59 °F 6¼ mi+ - 290° 290° 19 kt METAR EHAM 271525Z 29019KT 260V340 9999 FEW032 15/06 Q1022 NOSIG
4:55 da tarde
V
57 °F 6¼ mi+ - 300° 300° 18 kt METAR EHAM 271455Z 30018KT 270V340 9999 SCT032 14/06 Q1023 NOSIG
4:25 da tarde
V
57 °F 6¼ mi+ - 310° 310° 18 kt METAR EHAM 271425Z 31018KT 9999 SCT031 14/06 Q1022 NOSIG
3:55 da tarde
V
59 °F 6¼ mi+ - 290° 290° 18 kt METAR EHAM 271355Z 29018KT 260V320 9999 SCT030 15/07 Q1022 NOSIG
3:25 da tarde
V
57 °F 6¼ mi+ - 300° 300° 18 kt METAR EHAM 271325Z 30018KT 260V330 9999 SCT030 14/07 Q1022 NOSIG
2:55 da tarde
V
59 °F 6¼ mi+ - 300° 300° 18 kt METAR EHAM 271255Z 30018KT 260V330 9999 FEW029 SCT038 15/07 Q1022 NOSIG
2:25 da tarde
V
57 °F 6¼ mi+ - 300° 300° 17 kt METAR EHAM 271225Z 30017KT 270V330 9999 FEW029 SCT038 14/07 Q1022 NOSIG
1:55 da tarde
V
57 °F 6¼ mi+ - 280° 280° 19 kt METAR EHAM 271155Z 28019KT 250V320 9999 FEW030 SCT033 14/06 Q1022 NOSIG
1:25 da tarde
V
59 °F 6¼ mi+ - 290° 290° 18 kt METAR EHAM 271125Z 29018KT 260V320 9999 FEW030 SCT033 15/06 Q1022 NOSIG
12:55 da tarde
V
59 °F 6¼ mi+ - 280° 280° 17 kt METAR EHAM 271055Z 28017KT 250V310 9999 FEW030 SCT035 15/06 Q1021 NOSIG
12:25 da tarde
V
57 °F 6¼ mi+ - 280° 280° 16 kt METAR EHAM 271025Z 28016KT 250V310 9999 FEW027 SCT033 14/06 Q1021 NOSIG
11:55 da manhã
V
59 °F 6¼ mi+ - 280° 280° 19 kt METAR EHAM 270955Z 28019KT 9999 FEW027 SCT035 15/06 Q1021 NOSIG
11:25 da manhã
V
57 °F 6¼ mi+ - 280° 280° 18 kt METAR EHAM 270925Z 28018KT 240V310 9999 FEW030 14/06 Q1021 NOSIG
10:55 da manhã
V
59 °F 6¼ mi+ - 280° 280° 17 kt METAR EHAM 270855Z 28017KT 250V320 9999 FEW029 15/06 Q1021 NOSIG
10:25 da manhã
V
59 °F 6¼ mi+ - 280° 280° 18 kt METAR EHAM 270825Z 28018KT 250V310 9999 FEW026 15/07 Q1020 NOSIG
9:55 da manhã
V
57 °F 6¼ mi+ - 290° 290° 19 kt METAR EHAM 270755Z 29019KT 250V340 9999 FEW028 SCT031 14/07 Q1020 NOSIG
9:25 da manhã
V
57 °F 6¼ mi+ - 290° 290° 18 kt METAR EHAM 270725Z 29018KT 260V320 9999 FEW025 14/06 Q1020 NOSIG
8:55 da manhã
V
57 °F 6¼ mi+ - 290° 290° 13 kt METAR EHAM 270655Z 29013KT 260V320 9999 FEW025 14/09 Q1020 NOSIG
8:25 da manhã
V
57 °F 6¼ mi+ - 300° 300° 12 kt METAR EHAM 270625Z 30012KT 270V340 9999 FEW025 14/09 Q1020 NOSIG
7:55 da manhã
V
57 °F 6¼ mi+ - 290° 290° 12 kt METAR EHAM 270555Z 29012KT 260V330 9999 FEW020 14/08 Q1019 NOSIG
7:25 da manhã
V
57 °F 6¼ mi+ - 300° 300° 14 kt METAR EHAM 270525Z 30014KT 270V330 9999 FEW015 14/08 Q1019 NOSIG
6:55 da manhã
V
57 °F 6¼ mi+ - 290° 290° 12 kt METAR EHAM 270455Z 29012KT 9999 FEW015 14/09 Q1019 NOSIG
6:25 da manhã
V
55 °F 6¼ mi+ - 280° 280° 10 kt METAR EHAM 270425Z 28010KT 250V320 9999 FEW015 13/11 Q1019 NOSIG
5:55 da manhã
V
57 °F 6¼ mi+ - 280° 280° 10 kt METAR EHAM 270355Z 28010KT 250V310 9999 FEW015 14/12 Q1019 NOSIG
5:25 da manhã
V
57 °F 6¼ mi+ - 270° 270° 9 kt METAR EHAM 270325Z 27009KT 9999 FEW044 14/12 Q1019 NOSIG
4:55 da manhã
V
57 °F 6¼ mi+ - 280° 280° 9 kt METAR EHAM 270255Z 28009KT 9999 FEW048 14/11 Q1019 NOSIG
4:25 da manhã
V
57 °F 6¼ mi+ - 280° 280° 9 kt METAR EHAM 270225Z 28009KT 9999 FEW046 14/12 Q1019 NOSIG
3:55 da manhã
V
55 °F 6¼ mi+ - 270° 270° 11 kt METAR EHAM 270155Z 27011KT 9999 FEW045 13/12 Q1019 NOSIG
3:25 da manhã
V
55 °F 6¼ mi+ - 280° 280° 12 kt METAR EHAM 270125Z 28012KT 9999 FEW045 13/11 Q1019 NOSIG
2:55 da manhã
V
57 °F 6¼ mi+ 4.700 ft 260° 260° 12 kt METAR EHAM 270055Z 26012KT 9999 FEW030 BKN047 14/12 Q1019 NOSIG
2:25 da manhã
V
57 °F 6¼ mi+ 4.700 ft 260° 260° 14 kt METAR EHAM 270025Z 26014KT 9999 -DZRA FEW008 SCT022 BKN047 14/12 Q1019 TEMPO 6000 DZRA
1:55 da manhã
V
55 °F 6¼ mi+ 4.500 ft 260° 260° 13 kt METAR EHAM 262355Z 26013KT 220V290 9999 FEW007 SCT030 BKN045 13/12 Q1019 TEMPO 4000 DZRA
1:25 da manhã
I
57 °F 2 mi 1.100 ft 270° 270° 15 kt METAR EHAM 262325Z 27015KT 240V300 3200 DZRA FEW006 BKN011 BKN032 14/13 Q1019 TEMPO 8000 -RADZ BKN015
12:55 da manhã
M
59 °F 6¼ mi+ 1.500 ft 270° 270° 20 - 30 kt METAR EHAM 262255Z 27020G30KT 9999 FEW010 SCT012 BKN015 15/13 Q1019 TEMPO 4000 RADZ BKN012
12:25 da manhã
V
61 °F 6¼ mi+ 3.400 ft 240° 240° 19 kt METAR EHAM 262225Z 24019KT 210V280 9999 FEW011 SCT016 BKN034 16/13 Q1018 TEMPO 6000 RADZ BKN015

26 de maio de 2022

Hora Código Clima Temp. Visibilidade Tecto Vento METAR/SPECI
11:55 da tarde
V
61 °F 6¼ mi+ 3.500 ft 240° 240° 20 - 30 kt METAR EHAM 262155Z 24020G30KT 200V260 9999 FEW012 BKN035 16/13 Q1018 NOSIG
11:25 da tarde
V
61 °F 6¼ mi+ 4.000 ft 240° 240° 19 kt METAR EHAM 262125Z 24019KT 9999 FEW013 BKN040 16/12 Q1019 NOSIG
10:55 da tarde
V
61 °F 6¼ mi+ 4.400 ft 240° 240° 19 - 29 kt METAR EHAM 262055Z 24019G29KT 9999 FEW012 BKN044 16/12 Q1019 NOSIG
10:25 da tarde
V
61 °F 6¼ mi+ - 230° 230° 17 kt METAR EHAM 262025Z 23017KT 200V260 9999 SCT033 16/12 Q1019 NOSIG
9:55 da tarde
V
61 °F 6¼ mi+ - 240° 240° 17 kt METAR EHAM 261955Z 24017KT 200V260 9999 FEW016 SCT032 16/12 Q1019 NOSIG
9:25 da tarde
V
61 °F 6¼ mi+ - 230° 230° 17 kt METAR EHAM 261925Z 23017KT 210V270 9999 FEW016 SCT032 16/12 Q1018 NOSIG
8:55 da tarde
V
61 °F 6¼ mi+ 3.500 ft 230° 230° 16 kt METAR EHAM 261855Z 23016KT 200V260 9999 FEW013 BKN035 16/12 Q1018 NOSIG
8:25 da tarde
V
61 °F 6¼ mi+ - 240° 240° 20 kt METAR EHAM 261825Z 24020KT 210V270 9999 -RA FEW014 SCT036 16/12 Q1018 NOSIG
7:55 da tarde
V
61 °F 6¼ mi+ 3.600 ft 240° 240° 19 kt METAR EHAM 261755Z 24019KT 210V270 9999 FEW017 BKN036 16/12 Q1019 NOSIG
7:25 da tarde
V
61 °F 6¼ mi+ - 240° 240° 19 kt METAR EHAM 261725Z 24019KT 9999 FEW015 16/11 Q1019 NOSIG
6:55 da tarde
V
64 °F 6¼ mi+ - 240° 240° 23 kt METAR EHAM 261655Z 24023KT 210V270 9999 FEW020 18/12 Q1019 NOSIG
6:25 da tarde
V
63 °F 6¼ mi+ 3.600 ft 240° 240° 19 - 29 kt METAR EHAM 261625Z 24019G29KT 210V270 9999 FEW020 BKN036 17/11 Q1019 NOSIG
5:55 da tarde
V
63 °F 6¼ mi+ - 240° 240° 20 kt METAR EHAM 261555Z 24020KT 210V270 9999 FEW024 SCT037 17/11 Q1019 NOSIG
5:25 da tarde
V
63 °F 6¼ mi+ - 240° 240° 21 kt METAR EHAM 261525Z 24021KT 210V270 9999 FEW023 17/10 Q1019 NOSIG
4:55 da tarde
V
63 °F 6¼ mi+ - 240° 240° 20 kt METAR EHAM 261455Z 24020KT 210V280 9999 FEW024 17/10 Q1020 NOSIG
4:25 da tarde
V
63 °F 6¼ mi+ - 250° 250° 20 kt METAR EHAM 261425Z 25020KT 220V280 9999 FEW024 17/10 Q1020 NOSIG
3:55 da tarde
V
63 °F 6¼ mi+ - 250° 250° 19 kt METAR EHAM 261355Z 25019KT 210V270 9999 FEW020 17/10 Q1020 NOSIG
3:25 da tarde
V
63 °F 6¼ mi+ - 240° 240° 20 kt METAR EHAM 261325Z 24020KT 210V270 9999 FEW018 17/10 Q1020 NOSIG
2:55 da tarde
V
63 °F 6¼ mi+ - 240° 240° 19 kt METAR EHAM 261255Z 24019KT 200V280 9999 FEW018 17/10 Q1020 NOSIG
2:25 da tarde
V
64 °F 6¼ mi+ - 250° 250° 19 kt METAR EHAM 261225Z 25019KT 210V280 9999 FEW017 18/10 Q1020 NOSIG
1:55 da tarde
V
64 °F 6¼ mi+ - 250° 250° 15 kt METAR EHAM 261155Z 25015KT 220V290 9999 FEW017 18/11 Q1020 NOSIG
1:25 da tarde
V
63 °F 6¼ mi+ - 250° 250° 16 kt METAR EHAM 261125Z 25016KT 210V290 9999 FEW018 17/11 Q1020 NOSIG
12:55 da tarde
V
63 °F 6¼ mi+ - 250° 250° 15 kt METAR EHAM 261055Z 25015KT 210V280 9999 FEW018 17/11 Q1020 NOSIG
12:25 da tarde
V
61 °F 6¼ mi+ - 240° 240° 17 kt METAR EHAM 261025Z 24017KT 210V270 9999 FEW016 SCT020 16/11 Q1020 NOSIG
11:55 da manhã
V
63 °F 6¼ mi+ - 250° 250° 14 kt METAR EHAM 260955Z 25014KT 210V280 9999 FEW016 SCT018 17/12 Q1020 NOSIG
11:25 da manhã
V
63 °F 6¼ mi+ - 250° 250° 15 kt METAR EHAM 260925Z 25015KT 220V290 9999 FEW017 17/12 Q1020 NOSIG
10:55 da manhã
V
63 °F 6¼ mi+ - 250° 250° 13 kt METAR EHAM 260855Z 25013KT 210V280 9999 FEW017 17/12 Q1020 NOSIG
10:25 da manhã
V
61 °F 6¼ mi+ - 260° 260° 12 kt METAR EHAM 260825Z 26012KT 230V290 9999 FEW016 16/11 Q1019 NOSIG
9:55 da manhã
V
61 °F 6¼ mi+ - 250° 250° 12 kt METAR EHAM 260755Z 25012KT 220V300 9999 FEW016 16/12 Q1019 NOSIG
9:25 da manhã
V
59 °F 6¼ mi+ - 250° 250° 10 kt METAR EHAM 260725Z 25010KT 9999 FEW015 15/11 Q1019 NOSIG
8:55 da manhã
V
59 °F 6¼ mi+ - 250° 250° 10 kt METAR EHAM 260655Z 25010KT 230V290 9999 FEW015 15/11 Q1019 NOSIG
8:25 da manhã
V
59 °F 6¼ mi+ - 260° 260° 9 kt METAR EHAM 260625Z 26009KT 9999 FEW020 15/11 Q1018 NOSIG
7:55 da manhã
V
59 °F 6¼ mi+ - 270° 270° 9 kt METAR EHAM 260555Z 27009KT CAVOK 15/11 Q1018 NOSIG
7:25 da manhã
V
59 °F 6¼ mi+ - 260° 260° 9 kt METAR EHAM 260525Z 26009KT 230V290 CAVOK 15/11 Q1018 NOSIG
6:55 da manhã
V
57 °F 6¼ mi+ - 260° 260° 7 kt METAR EHAM 260455Z 26007KT 9999 FEW040 14/11 Q1018 NOSIG
6:25 da manhã
V
57 °F 6¼ mi+ - 260° 260° 8 kt METAR EHAM 260425Z 26008KT 9999 FEW040 14/11 Q1017 NOSIG
5:55 da manhã
V
57 °F 6¼ mi+ - 250° 250° 9 kt METAR EHAM 260355Z 25009KT 230V290 9999 FEW040 14/11 Q1017 NOSIG
5:25 da manhã
V
57 °F 6¼ mi+ - 260° 260° 10 kt METAR EHAM 260325Z 26010KT CAVOK 14/11 Q1017 NOSIG
4:55 da manhã
V
57 °F 6¼ mi+ - 260° 260° 10 kt METAR EHAM 260255Z 26010KT 9999 FEW047 14/11 Q1017 NOSIG
4:25 da manhã
V
59 °F 6¼ mi+ 3.800 ft 260° 260° 10 kt METAR EHAM 260225Z 26010KT 9999 BKN038 15/11 Q1016 NOSIG
3:55 da manhã
V
59 °F 6¼ mi+ - 250° 250° 11 kt METAR EHAM 260155Z 25011KT 9999 SCT038 15/11 Q1016 NOSIG
3:25 da manhã
V
59 °F 6¼ mi+ 4.000 ft 250° 250° 12 kt METAR EHAM 260125Z 25012KT 220V280 9999 BKN040 15/12 Q1016 NOSIG
2:55 da manhã
V
57 °F 6¼ mi+ - 250° 250° 13 kt METAR EHAM 260055Z 25013KT 9999 FEW011 SCT043 14/12 Q1016 NOSIG
2:25 da manhã
V
57 °F 6¼ mi+ - 240° 240° 14 kt METAR EHAM 260025Z 24014KT 220V280 9999 FEW011 SCT043 14/12 Q1016 NOSIG
1:55 da manhã
V
57 °F 6¼ mi+ - 240° 240° 14 kt METAR EHAM 252355Z 24014KT 210V280 9999 FEW011 SCT016 14/12 Q1015 NOSIG
1:25 da manhã
V
59 °F 6¼ mi+ 3.400 ft 240° 240° 15 kt METAR EHAM 252325Z 24015KT 210V270 9999 FEW011 SCT015 BKN034 15/12 Q1015 NOSIG
12:55 da manhã
V
59 °F 6¼ mi+ - 230° 230° 15 kt METAR EHAM 252255Z 23015KT 210V270 9999 FEW011 SCT017 15/12 Q1015 NOSIG
12:25 da manhã
M
59 °F 6¼ mi+ 1.600 ft 230° 230° 16 kt METAR EHAM 252225Z 23016KT 9999 FEW011 BKN016 BKN042 15/12 Q1015 NOSIG

25 de maio de 2022

Hora Código Clima Temp. Visibilidade Tecto Vento METAR/SPECI
11:55 da tarde
M
59 °F 6¼ mi+ 1.700 ft 230° 230° 14 kt METAR EHAM 252155Z 23014KT 190V260 9999 FEW011 BKN017 15/12 Q1015 NOSIG
Dados mais antigos

Baixe nosso aplicativo

Fácil acesso a todas as condições meteorológicas da aviação no seu celular e no seu tablet.
Com muitas características não disponíveis no site, como suporte offline e uma lista pessoal de aeroportos.

Nós e terceiros acompanhamos seu comportamento na internet em nosso site com cookies. Se você continuar, nós assumimos que você concorda com nossa política de cookies. Saiba mais